createdAt,value
2018-11-10T00:00:19.198Z,76.40
2018-11-10T00:02:48.567Z,76.40
2018-11-10T00:05:17.679Z,76.30
2018-11-10T00:07:46.292Z,76.50
2018-11-10T00:10:14.858Z,76.30
2018-11-10T00:12:43.400Z,76.40
2018-11-10T00:15:13.228Z,76.30
2018-11-10T00:17:41.754Z,76.30
2018-11-10T00:20:10.764Z,76.40
2018-11-10T00:22:40.493Z,76.40
2018-11-10T00:25:11.088Z,76.50
2018-11-10T00:27:40.019Z,76.40
2018-11-10T00:30:10.559Z,76.50
2018-11-10T00:32:39.085Z,76.50
2018-11-10T00:35:07.890Z,76.50
2018-11-10T00:37:36.482Z,76.50
2018-11-10T00:40:05.453Z,76.50
2018-11-10T00:42:33.985Z,76.60
2018-11-10T00:45:02.495Z,76.60
2018-11-10T00:47:31.025Z,76.60
2018-11-10T00:49:59.545Z,76.40
2018-11-10T00:52:28.069Z,76.40
2018-11-10T00:54:56.656Z,76.60
2018-11-10T00:57:25.317Z,76.50
2018-11-10T00:59:53.819Z,76.60
2018-11-10T01:02:22.373Z,76.50
2018-11-10T01:04:50.885Z,76.50
2018-11-10T01:07:19.414Z,76.60
2018-11-10T01:09:47.910Z,76.50
2018-11-10T01:12:16.486Z,76.60
2018-11-10T01:14:44.979Z,76.70
2018-11-10T01:17:13.497Z,76.50
2018-11-10T01:19:42.754Z,76.50
2018-11-10T01:22:11.291Z,76.60
2018-11-10T01:24:39.759Z,76.60
2018-11-10T01:27:08.281Z,76.60
2018-11-10T01:29:36.778Z,76.60
2018-11-10T01:32:05.646Z,76.60
2018-11-10T01:34:34.243Z,76.70
2018-11-10T01:37:02.771Z,76.60
2018-11-10T01:39:31.302Z,76.60
2018-11-10T01:41:59.843Z,76.60
2018-11-10T01:44:28.442Z,76.60
2018-11-10T01:46:57.121Z,76.60
2018-11-10T01:49:25.623Z,76.80
2018-11-10T01:51:54.525Z,76.60
2018-11-10T01:54:23.046Z,76.70
2018-11-10T01:56:51.549Z,76.60
2018-11-10T01:59:20.090Z,76.80
2018-11-10T02:01:48.612Z,77.00
2018-11-10T02:04:17.123Z,77.00
2018-11-10T02:06:45.764Z,76.80
2018-11-10T02:09:14.193Z,76.70
2018-11-10T02:11:42.906Z,76.70
2018-11-10T02:14:11.677Z,76.70
2018-11-10T02:16:40.200Z,76.80
2018-11-10T02:19:09.243Z,76.80
2018-11-10T02:21:38.921Z,76.80
2018-11-10T02:24:07.481Z,76.80
2018-11-10T02:26:36.310Z,76.80
2018-11-10T02:29:04.858Z,76.70
2018-11-10T02:31:33.429Z,76.90
2018-11-10T02:34:01.996Z,76.90
2018-11-10T02:36:30.522Z,76.90
2018-11-10T02:38:59.027Z,76.90
2018-11-10T02:41:27.557Z,77.00
2018-11-10T02:43:56.055Z,77.00
2018-11-10T02:46:24.573Z,77.00
2018-11-10T02:48:53.070Z,77.80
2018-11-10T02:51:21.593Z,77.00
2018-11-10T02:53:50.088Z,76.90
2018-11-10T02:56:18.586Z,76.90
2018-11-10T02:58:47.070Z,76.60
2018-11-10T03:01:15.587Z,77.00
2018-11-10T03:03:44.115Z,77.00
2018-11-10T03:06:12.974Z,77.00
2018-11-10T03:08:41.715Z,77.00
2018-11-10T03:11:10.254Z,77.00
2018-11-10T03:13:38.767Z,77.00
2018-11-10T03:16:07.307Z,77.10
2018-11-10T03:18:35.821Z,77.00
2018-11-10T03:21:04.402Z,77.10
2018-11-10T03:23:32.932Z,77.10
2018-11-10T03:26:01.439Z,77.10
2018-11-10T03:28:29.933Z,77.10
2018-11-10T03:30:58.459Z,77.10
2018-11-10T03:33:26.954Z,77.10
2018-11-10T03:35:56.410Z,77.10
2018-11-10T03:38:25.721Z,77.00
2018-11-10T03:40:54.261Z,77.10
2018-11-10T03:43:22.794Z,77.00
2018-11-10T03:45:51.321Z,77.00
2018-11-10T03:48:19.819Z,77.10
2018-11-10T03:50:48.332Z,77.00
2018-11-10T03:53:16.857Z,77.00
2018-11-10T03:55:45.374Z,76.70
2018-11-10T03:58:15.088Z,77.00
2018-11-10T04:00:43.610Z,77.00
2018-11-10T04:03:12.149Z,77.00
2018-11-10T04:05:40.678Z,76.90
2018-11-10T04:08:09.209Z,76.90
2018-11-10T04:10:37.693Z,76.90
2018-11-10T04:13:06.261Z,77.00
2018-11-10T04:15:35.010Z,76.90
2018-11-10T04:18:03.478Z,76.90
2018-11-10T04:20:32.039Z,76.90
2018-11-10T04:23:00.521Z,76.90
2018-11-10T04:25:29.055Z,76.90
2018-11-10T04:27:57.536Z,76.90
2018-11-10T04:30:26.035Z,76.90
2018-11-10T04:32:54.543Z,77.00
2018-11-10T04:35:23.225Z,77.00
2018-11-10T04:37:51.756Z,76.90
2018-11-10T04:40:20.249Z,76.90
2018-11-10T04:42:48.782Z,76.80
2018-11-10T04:45:17.254Z,76.90
2018-11-10T04:47:45.747Z,76.80
2018-11-10T04:50:14.286Z,76.80
2018-11-10T04:52:42.843Z,77.40
2018-11-10T04:55:12.387Z,76.70
2018-11-10T04:57:41.348Z,76.70
2018-11-10T05:00:12.626Z,76.70
2018-11-10T05:02:41.354Z,76.80
2018-11-10T05:05:09.874Z,76.70
2018-11-10T05:07:38.542Z,76.60
2018-11-10T05:10:08.045Z,76.70
2018-11-10T05:12:36.590Z,76.70
2018-11-10T05:15:06.500Z,76.70
2018-11-10T05:17:35.021Z,76.70
2018-11-10T05:20:03.638Z,76.70
2018-11-10T05:22:32.165Z,76.70
2018-11-10T05:25:00.699Z,76.70
2018-11-10T05:27:29.221Z,76.60
2018-11-10T05:29:58.108Z,76.60
2018-11-10T05:32:26.621Z,76.60
2018-11-10T05:34:55.134Z,76.50
2018-11-10T05:37:23.619Z,76.60
2018-11-10T05:39:52.094Z,76.70
2018-11-10T05:42:20.625Z,76.70
2018-11-10T05:44:49.093Z,76.60
2018-11-10T05:47:17.678Z,76.50
2018-11-10T05:49:46.245Z,76.60
2018-11-10T05:52:14.775Z,76.50
2018-11-10T05:54:43.338Z,76.60
2018-11-10T05:57:11.871Z,76.60
2018-11-10T05:59:40.361Z,76.50
2018-11-10T06:02:15.382Z,76.50
2018-11-10T06:04:43.922Z,76.40
2018-11-10T06:07:12.405Z,76.30
2018-11-10T06:09:40.940Z,76.20
2018-11-10T06:12:09.453Z,76.10
2018-11-10T06:14:37.994Z,76.00
2018-11-10T06:17:06.858Z,76.00
2018-11-10T06:19:35.352Z,76.10
2018-11-10T06:22:03.837Z,76.30
2018-11-10T06:24:32.310Z,76.30
2018-11-10T06:27:00.837Z,76.10
2018-11-10T06:29:29.322Z,75.80
2018-11-10T06:31:57.802Z,75.50
2018-11-10T06:34:26.293Z,75.10
2018-11-10T06:36:54.783Z,74.90
2018-11-10T06:39:23.232Z,74.70
2018-11-10T06:45:53.698Z,74.00
2018-11-10T06:48:22.285Z,73.70
2018-11-10T06:50:50.877Z,73.20
2018-11-10T06:53:19.398Z,72.90
2018-11-10T06:55:47.884Z,72.80
2018-11-10T06:58:16.349Z,72.70
2018-11-10T07:00:44.865Z,72.70
2018-11-10T07:03:13.393Z,72.70
2018-11-10T07:05:41.949Z,72.70
2018-11-10T07:08:10.590Z,60.30
2018-11-10T07:10:39.266Z,66.40
2018-11-10T07:13:07.869Z,77.60
2018-11-10T07:15:36.439Z,89.40
2018-11-10T07:18:05.552Z,97.60
2018-11-10T07:20:35.248Z,99.90
2018-11-10T07:23:03.874Z,99.90
2018-11-10T07:25:32.450Z,99.90
2018-11-10T07:28:00.988Z,99.90
2018-11-10T07:30:29.591Z,99.90
2018-11-10T07:32:58.149Z,99.90
2018-11-10T07:35:27.478Z,99.90
2018-11-10T07:37:56.007Z,99.90
2018-11-10T07:40:24.587Z,99.90
2018-11-10T07:42:53.313Z,99.90
2018-11-10T07:45:21.866Z,99.90
2018-11-10T07:47:50.434Z,99.90
2018-11-10T07:50:19.039Z,99.90
2018-11-10T07:52:47.693Z,99.90
2018-11-10T07:55:17.123Z,99.90
2018-11-10T07:57:47.408Z,99.90
2018-11-10T08:00:17.033Z,99.90
2018-11-10T08:02:45.764Z,99.90
2018-11-10T08:05:14.780Z,99.90
2018-11-10T08:07:43.909Z,99.90
2018-11-10T08:10:13.127Z,99.90
2018-11-10T08:12:41.656Z,99.90
2018-11-10T08:15:16.484Z,99.90
2018-11-10T08:17:45.058Z,99.90
2018-11-10T08:20:14.110Z,99.90
2018-11-10T08:22:42.725Z,99.90
2018-11-10T08:25:13.061Z,99.90
2018-11-10T08:27:41.575Z,99.90
2018-11-10T08:30:11.644Z,99.90
2018-11-10T08:32:40.655Z,99.90
2018-11-10T08:35:10.831Z,99.90
2018-11-10T08:37:39.498Z,99.90
2018-11-10T08:40:10.315Z,99.90
2018-11-10T08:42:38.928Z,99.90
2018-11-10T08:45:08.895Z,99.90
2018-11-10T08:47:37.420Z,99.90
2018-11-10T08:50:07.067Z,99.90
2018-11-10T08:52:35.926Z,99.90
2018-11-10T08:55:04.654Z,99.90
2018-11-10T08:57:33.315Z,99.90
2018-11-10T09:00:01.857Z,99.90
2018-11-10T09:02:30.512Z,99.90
2018-11-10T09:04:59.046Z,99.90
2018-11-10T09:07:27.775Z,99.90
2018-11-10T09:09:56.405Z,99.90
2018-11-10T09:12:24.981Z,99.90
2018-11-10T09:14:53.862Z,99.90
2018-11-10T09:17:22.378Z,99.90
2018-11-10T09:19:50.972Z,99.90
2018-11-10T09:22:19.515Z,99.90
2018-11-10T09:24:48.045Z,99.90
2018-11-10T09:27:17.842Z,99.90
2018-11-10T09:29:46.443Z,99.90
2018-11-10T09:32:15.502Z,99.90
2018-11-10T09:34:44.048Z,99.90
2018-11-10T09:37:12.626Z,99.90
2018-11-10T09:39:41.440Z,99.90
2018-11-10T09:42:10.138Z,99.90
2018-11-10T09:44:38.694Z,99.90
2018-11-10T09:47:07.347Z,99.90
2018-11-10T09:49:38.900Z,99.90
2018-11-10T09:52:07.454Z,99.90
2018-11-10T09:54:36.049Z,99.60
2018-11-10T09:57:05.067Z,97.80
2018-11-10T09:59:33.665Z,96.30
2018-11-10T10:02:02.657Z,93.50
2018-11-10T10:04:30.913Z,90.40
2018-11-10T10:06:59.527Z,87.20
2018-11-10T10:09:28.115Z,83.60
2018-11-10T10:11:56.682Z,77.80
2018-11-10T10:14:25.222Z,72.50
2018-11-10T10:16:53.767Z,73.70
2018-11-10T10:19:22.344Z,74.10
2018-11-10T10:21:51.007Z,72.60
2018-11-10T10:24:19.521Z,69.00
2018-11-10T10:26:48.219Z,64.90
2018-11-10T10:29:16.836Z,62.40
2018-11-10T10:31:45.483Z,52.60
2018-11-10T10:34:14.283Z,43.50
2018-11-10T10:36:42.887Z,38.00
2018-11-10T10:39:11.548Z,37.00
2018-11-10T10:41:40.326Z,34.20
2018-11-10T10:44:09.887Z,33.20
2018-11-10T10:46:38.545Z,31.10
2018-11-10T10:49:07.321Z,30.20
2018-11-10T10:51:36.162Z,30.00
2018-11-10T10:54:05.601Z,29.40
2018-11-10T10:56:34.529Z,31.30
2018-11-10T10:59:03.126Z,31.70
2018-11-10T11:01:37.744Z,32.20
2018-11-10T11:04:11.757Z,31.40
2018-11-10T11:06:40.415Z,32.70
2018-11-10T11:09:09.419Z,32.90
2018-11-10T11:11:38.139Z,31.70
2018-11-10T11:14:06.897Z,31.80
2018-11-10T11:16:35.580Z,32.90
2018-11-10T11:19:05.385Z,33.20
2018-11-10T11:21:34.041Z,33.90
2018-11-10T11:24:02.760Z,32.60
2018-11-10T11:26:32.040Z,33.10
2018-11-10T11:29:01.420Z,32.10
2018-11-10T11:31:30.142Z,32.60
2018-11-10T11:33:58.822Z,32.40
2018-11-10T11:36:27.511Z,30.70
2018-11-10T11:38:56.126Z,31.60
2018-11-10T11:41:24.954Z,32.20
2018-11-10T11:43:53.738Z,32.30
2018-11-10T11:46:22.423Z,31.80
2018-11-10T11:48:51.136Z,31.80
2018-11-10T11:51:19.769Z,32.60
2018-11-10T11:53:48.460Z,32.20
2018-11-10T11:56:17.211Z,32.50
2018-11-10T11:58:45.933Z,31.50
2018-11-10T12:01:15.198Z,31.70
2018-11-10T12:03:44.640Z,32.20
2018-11-10T12:06:13.297Z,35.10
2018-11-10T12:08:42.001Z,37.90
2018-11-10T12:11:10.612Z,40.50
2018-11-10T12:13:39.341Z,42.30
2018-11-10T12:16:08.122Z,44.20
2018-11-10T12:18:45.302Z,47.20
2018-11-10T12:21:14.022Z,48.90
2018-11-10T12:23:42.695Z,50.50
2018-11-10T12:26:13.919Z,51.40
2018-11-10T12:28:47.075Z,52.60
2018-11-10T12:31:18.399Z,52.60
2018-11-10T12:33:58.409Z,52.60
2018-11-10T12:36:27.357Z,52.10
2018-11-10T12:38:59.403Z,52.20
2018-11-10T12:41:40.345Z,52.20
2018-11-10T12:44:27.213Z,52.80
2018-11-10T12:46:59.259Z,53.20
2018-11-10T12:52:04.272Z,51.20
2018-11-10T12:54:33.005Z,53.30
2018-11-10T12:57:01.959Z,53.20
2018-11-10T12:59:36.517Z,54.20
2018-11-10T13:02:05.291Z,54.90
2018-11-10T13:04:33.841Z,54.20
2018-11-10T13:07:02.412Z,52.70
2018-11-10T13:09:30.942Z,52.60
2018-11-10T13:11:59.614Z,52.60
2018-11-10T13:14:28.089Z,53.40
2018-11-10T13:16:56.648Z,54.70
2018-11-10T13:19:25.585Z,55.80
2018-11-10T13:21:54.915Z,56.80
2018-11-10T13:24:23.603Z,57.40
2018-11-10T13:26:52.873Z,57.50
2018-11-10T13:29:21.506Z,57.70
2018-11-10T13:31:50.079Z,58.20
2018-11-10T13:34:18.783Z,59.20
2018-11-10T13:36:47.462Z,59.70
2018-11-10T13:39:16.070Z,59.80
2018-11-10T13:41:44.677Z,60.30
2018-11-10T13:44:13.307Z,61.00
2018-11-10T13:46:41.822Z,60.50
2018-11-10T13:49:10.387Z,61.70
2018-11-10T13:51:39.171Z,61.40
2018-11-10T13:54:07.596Z,61.40
2018-11-10T13:56:36.185Z,61.70
2018-11-10T13:59:04.800Z,61.70
2018-11-10T14:01:33.483Z,62.10
2018-11-10T14:04:02.166Z,61.80
2018-11-10T14:06:31.028Z,61.60
2018-11-10T14:08:59.635Z,60.70
2018-11-10T14:11:28.237Z,61.40
2018-11-10T14:13:56.995Z,61.70
2018-11-10T14:16:25.641Z,62.30
2018-11-10T14:18:54.199Z,61.50
2018-11-10T14:21:22.819Z,62.40
2018-11-10T14:23:51.734Z,63.50
2018-11-10T14:26:20.375Z,64.10
2018-11-10T14:28:48.938Z,64.60
2018-11-10T14:31:17.548Z,65.30
2018-11-10T14:33:46.148Z,65.30
2018-11-10T14:36:14.759Z,67.60
2018-11-10T14:38:43.372Z,68.90
2018-11-10T14:41:11.922Z,69.60
2018-11-10T14:43:40.606Z,70.70
2018-11-10T14:46:09.201Z,71.40
2018-11-10T14:48:37.793Z,71.30
2018-11-10T14:51:06.436Z,72.40
2018-11-10T14:53:35.026Z,73.10
2018-11-10T14:56:03.627Z,73.90
2018-11-10T14:58:32.228Z,74.30
2018-11-10T15:01:00.757Z,76.00
2018-11-10T15:03:29.486Z,77.50
2018-11-10T15:05:58.083Z,79.40
2018-11-10T15:08:26.646Z,82.00
2018-11-10T15:10:55.267Z,83.90
2018-11-10T15:13:23.863Z,87.40
2018-11-10T15:15:52.557Z,90.10
2018-11-10T15:18:21.325Z,91.20
2018-11-10T15:20:49.801Z,93.40
2018-11-10T15:23:18.445Z,94.70
2018-11-10T15:25:47.013Z,96.60
2018-11-10T15:28:16.461Z,98.60
2018-11-10T15:30:45.099Z,99.90
2018-11-10T15:33:13.763Z,99.90
2018-11-10T15:35:42.364Z,99.90
2018-11-10T15:38:11.040Z,99.90
2018-11-10T15:40:39.592Z,99.90
2018-11-10T15:43:08.254Z,99.90
2018-11-10T15:45:36.956Z,99.90
2018-11-10T15:48:05.598Z,99.90
2018-11-10T15:50:34.458Z,99.90
2018-11-10T15:53:02.885Z,99.90
2018-11-10T15:55:31.504Z,99.90
2018-11-10T15:58:00.054Z,99.90
2018-11-10T16:00:28.674Z,99.90
2018-11-10T16:02:57.287Z,99.90
2018-11-10T16:05:25.902Z,99.90
2018-11-10T16:07:54.506Z,99.90
2018-11-10T16:10:23.180Z,99.90
2018-11-10T16:12:51.703Z,99.90
2018-11-10T16:15:20.268Z,99.90
2018-11-10T16:17:48.929Z,99.90
2018-11-10T16:20:18.765Z,99.90
2018-11-10T16:22:48.677Z,99.90
2018-11-10T16:25:17.698Z,99.90
2018-11-10T16:27:46.510Z,99.90
2018-11-10T16:30:16.496Z,99.90
2018-11-10T16:32:45.507Z,99.90
2018-11-10T16:35:14.434Z,99.90
2018-11-10T16:37:43.068Z,99.90
2018-11-10T16:40:14.409Z,99.90
2018-11-10T16:42:44.084Z,99.90
2018-11-10T16:45:13.250Z,99.90
2018-11-10T16:47:45.163Z,99.90
2018-11-10T16:50:13.810Z,99.90
2018-11-10T16:52:43.152Z,99.90
2018-11-10T16:55:11.893Z,99.90
2018-11-10T16:57:40.614Z,99.90
2018-11-10T17:00:12.487Z,99.90
2018-11-10T17:02:41.334Z,99.90
2018-11-10T17:05:10.268Z,99.90
2018-11-10T17:07:39.301Z,99.90
2018-11-10T17:10:11.206Z,99.90
2018-11-10T17:12:43.754Z,99.90
2018-11-10T17:15:12.434Z,99.90
2018-11-10T17:17:41.779Z,99.90
2018-11-10T17:20:12.980Z,99.90
2018-11-10T17:22:42.391Z,99.90
2018-11-10T17:25:13.455Z,99.90
2018-11-10T17:27:42.777Z,99.90
2018-11-10T17:30:14.713Z,99.90
2018-11-10T17:32:43.796Z,99.90
2018-11-10T17:35:13.347Z,99.90
2018-11-10T17:37:46.166Z,99.90
2018-11-10T17:40:25.898Z,99.90
2018-11-10T17:59:20.949Z,99.90
2018-11-10T18:01:49.597Z,99.90
2018-11-10T18:04:18.070Z,99.90
2018-11-10T18:06:46.625Z,99.90
2018-11-10T18:09:15.194Z,99.90
2018-11-10T18:11:43.747Z,99.90
2018-11-10T18:14:12.314Z,99.90
2018-11-10T18:16:40.896Z,99.90
2018-11-10T18:19:09.553Z,99.90
2018-11-10T18:21:37.994Z,99.60
2018-11-10T18:24:06.593Z,98.20
2018-11-10T18:26:35.268Z,98.00
2018-11-10T18:29:04.529Z,97.60
2018-11-10T18:31:34.613Z,97.00
2018-11-10T18:34:03.197Z,96.30
2018-11-10T18:36:31.758Z,95.80
2018-11-10T18:39:00.359Z,95.60
2018-11-10T18:41:28.991Z,94.90
2018-11-10T18:43:57.620Z,94.40
2018-11-10T18:46:26.178Z,94.10
2018-11-10T18:48:54.813Z,93.80
2018-11-10T18:51:23.373Z,94.10
2018-11-10T18:53:52.017Z,93.40
2018-11-10T18:56:20.719Z,93.80
2018-11-10T18:58:49.352Z,93.80
2018-11-10T19:01:17.913Z,93.40
2018-11-10T19:03:47.236Z,92.70
2018-11-10T19:06:16.026Z,92.30
2018-11-10T19:08:44.589Z,92.60
2018-11-10T19:11:13.215Z,93.40
2018-11-10T19:13:41.729Z,93.80
2018-11-10T19:16:10.525Z,93.90
2018-11-10T19:18:39.105Z,94.50
2018-11-10T19:21:07.785Z,95.20
